createdAt,value
2023-03-05T00:01:18.301Z,2.72
2023-03-05T00:03:46.807Z,3.85
2023-03-05T00:06:14.611Z,3.17
2023-03-05T00:08:42.264Z,2.95
2023-03-05T00:11:11.562Z,3.40
2023-03-05T00:13:39.513Z,4.10
2023-03-05T00:16:10.398Z,5.38
2023-03-05T00:18:38.800Z,2.63
2023-03-05T00:21:17.263Z,3.58
2023-03-05T00:23:44.645Z,2.78
2023-03-05T00:26:12.110Z,3.45
2023-03-05T00:28:39.314Z,2.78
2023-03-05T00:31:06.510Z,3.22
2023-03-05T00:33:34.470Z,3.72
2023-03-05T00:36:06.767Z,3.10
2023-03-05T00:38:35.003Z,5.10
2023-03-05T00:41:03.401Z,3.83
2023-03-05T00:43:30.899Z,3.28
2023-03-05T00:45:58.451Z,5.30
2023-03-05T00:48:26.161Z,4.03
2023-03-05T00:50:53.530Z,3.47
2023-03-05T00:53:22.962Z,2.80
2023-03-05T00:55:50.978Z,2.65
2023-03-05T00:58:18.848Z,3.22
2023-03-05T01:00:46.634Z,2.67
2023-03-05T01:03:14.154Z,3.20
2023-03-05T01:05:43.264Z,2.88
2023-03-05T01:08:11.347Z,5.47
2023-03-05T01:10:42.546Z,3.60
2023-03-05T01:13:11.221Z,3.15
2023-03-05T01:15:39.356Z,3.22
2023-03-05T01:18:08.359Z,2.42
2023-03-05T01:20:38.725Z,2.72
2023-03-05T01:23:06.780Z,2.78
2023-03-05T01:25:35.490Z,2.95
2023-03-05T01:28:06.248Z,2.22
2023-03-05T01:30:34.991Z,2.67
2023-03-05T01:33:03.447Z,4.95
2023-03-05T01:35:31.422Z,2.80
2023-03-05T01:37:59.521Z,3.35
2023-03-05T01:40:29.593Z,2.78
2023-03-05T01:45:35.711Z,2.15
2023-03-05T01:48:05.001Z,3.13
2023-03-05T01:50:34.184Z,3.35
2023-03-05T01:53:06.058Z,2.67
2023-03-05T01:55:37.396Z,2.40
2023-03-05T01:58:10.399Z,3.17
2023-03-05T02:00:52.995Z,2.65
2023-03-05T02:03:23.098Z,3.10
2023-03-05T02:05:53.812Z,2.88
2023-03-05T02:08:23.080Z,3.15
2023-03-05T02:10:56.541Z,3.17
2023-03-05T02:13:31.707Z,2.55
2023-03-05T02:16:01.420Z,2.95
2023-03-05T02:18:30.608Z,2.33
2023-03-05T02:20:58.270Z,3.08
2023-03-05T02:23:30.282Z,3.08
2023-03-05T02:25:59.052Z,3.60
2023-03-05T02:28:40.064Z,2.63
2023-03-05T02:31:16.389Z,3.15
2023-03-05T02:33:45.364Z,3.15
2023-03-05T02:36:13.768Z,3.03
2023-03-05T02:38:42.583Z,2.78
2023-03-05T02:41:11.515Z,2.67
2023-03-05T02:43:40.058Z,2.53
2023-03-05T02:46:08.820Z,3.60
2023-03-05T02:48:37.803Z,3.42
2023-03-05T02:51:07.776Z,3.65
2023-03-05T02:53:36.040Z,3.13
2023-03-05T02:56:04.611Z,3.28
2023-03-05T02:58:32.564Z,3.95
2023-03-05T03:01:00.192Z,3.95
2023-03-05T03:03:30.550Z,3.75
2023-03-05T03:05:58.965Z,4.32
2023-03-05T03:08:27.232Z,4.47
2023-03-05T03:10:56.693Z,3.03
2023-03-05T03:13:25.456Z,3.70
2023-03-05T03:16:13.705Z,3.58
2023-03-05T03:18:42.583Z,4.03
2023-03-05T03:21:21.868Z,3.83
2023-03-05T03:23:51.781Z,3.33
2023-03-05T03:28:49.351Z,2.80
2023-03-05T03:31:19.890Z,3.45
2023-03-05T03:33:47.863Z,3.60
2023-03-05T03:36:15.805Z,3.30
2023-03-05T03:38:43.687Z,3.58
2023-03-05T03:41:12.119Z,3.72
2023-03-05T03:43:40.137Z,3.25
2023-03-05T03:46:09.664Z,2.80
2023-03-05T03:48:37.244Z,3.58
2023-03-05T03:51:07.396Z,3.92
2023-03-05T03:53:35.203Z,4.13
2023-03-05T03:56:04.622Z,4.80
2023-03-05T03:58:33.320Z,6.38
2023-03-05T04:03:29.927Z,3.50
2023-03-05T04:05:59.173Z,4.43
2023-03-05T04:08:30.431Z,3.65
2023-03-05T04:11:02.037Z,4.60
2023-03-05T04:13:30.584Z,3.88
2023-03-05T04:15:59.582Z,3.35
2023-03-05T04:18:29.777Z,4.03
2023-03-05T04:21:00.221Z,4.47
2023-03-05T04:23:29.396Z,3.53
2023-03-05T04:26:02.739Z,3.88
2023-03-05T04:28:33.079Z,3.08
2023-03-05T04:31:03.216Z,4.18
2023-03-05T04:33:32.588Z,3.90
2023-03-05T04:36:01.970Z,3.45
2023-03-05T04:38:34.234Z,3.25
2023-03-05T04:41:03.272Z,3.95
2023-03-05T04:43:31.828Z,3.60
2023-03-05T04:45:59.922Z,3.83
2023-03-05T04:48:27.994Z,3.75
2023-03-05T04:50:55.297Z,3.92
2023-03-05T04:53:23.960Z,3.70
2023-03-05T04:55:55.902Z,3.22
2023-03-05T04:58:24.201Z,3.45
2023-03-05T05:00:52.667Z,3.85
2023-03-05T05:03:20.762Z,3.55
2023-03-05T05:05:55.871Z,3.90
2023-03-05T05:08:24.698Z,3.92
2023-03-05T05:11:01.311Z,3.22
2023-03-05T05:13:32.458Z,3.05
2023-03-05T05:16:00.996Z,3.63
2023-03-05T05:18:29.446Z,3.80
2023-03-05T05:20:57.938Z,3.17
2023-03-05T05:23:27.918Z,3.78
2023-03-05T05:26:01.728Z,3.88
2023-03-05T05:28:30.717Z,3.33
2023-03-05T05:30:58.817Z,3.65
2023-03-05T05:33:27.415Z,3.45
2023-03-05T05:35:57.973Z,3.60
2023-03-05T05:38:26.107Z,3.58
2023-03-05T05:40:53.470Z,3.80
2023-03-05T05:43:20.992Z,3.15
2023-03-05T05:45:49.207Z,3.72
2023-03-05T05:48:17.640Z,3.38
2023-03-05T05:50:45.739Z,2.83
2023-03-05T05:53:24.128Z,3.90
2023-03-05T05:55:54.339Z,3.25
2023-03-05T05:58:22.904Z,3.53
2023-03-05T06:00:53.336Z,4.10
2023-03-05T06:03:24.326Z,3.80
2023-03-05T06:05:52.997Z,3.53
2023-03-05T06:08:21.513Z,3.40
2023-03-05T06:10:59.156Z,3.53
2023-03-05T06:13:27.419Z,3.78
2023-03-05T06:16:02.072Z,3.63
2023-03-05T06:18:31.169Z,3.90
2023-03-05T06:21:03.689Z,3.88
2023-03-05T06:23:32.205Z,3.38
2023-03-05T06:26:02.373Z,3.60
2023-03-05T06:28:31.489Z,3.78
2023-03-05T06:31:14.186Z,3.15
2023-03-05T06:36:13.789Z,3.63
2023-03-05T06:38:42.226Z,2.88
2023-03-05T06:41:13.803Z,3.25
2023-03-05T06:43:44.404Z,3.92
2023-03-05T06:46:27.987Z,3.15
2023-03-05T06:51:27.817Z,2.80
2023-03-05T06:53:59.825Z,3.70
2023-03-05T06:56:28.327Z,3.97
2023-03-05T06:58:57.323Z,3.47
2023-03-05T07:01:25.974Z,3.50
2023-03-05T07:03:55.754Z,2.75
2023-03-05T07:06:24.193Z,3.47
2023-03-05T07:08:55.862Z,3.20
2023-03-05T07:16:21.822Z,3.05
2023-03-05T07:18:52.456Z,3.22
2023-03-05T07:21:23.256Z,5.67
2023-03-05T07:23:58.621Z,4.75
2023-03-05T07:26:28.939Z,3.45
2023-03-05T07:28:57.254Z,3.17
2023-03-05T07:31:30.927Z,4.07
2023-03-05T07:34:02.046Z,4.38
2023-03-05T07:36:31.155Z,3.33
2023-03-05T07:38:59.517Z,2.97
2023-03-05T07:41:28.585Z,3.28
2023-03-05T07:46:28.138Z,2.30
2023-03-05T07:48:56.951Z,3.15
2023-03-05T07:51:26.632Z,3.38
2023-03-05T07:53:59.115Z,3.33
2023-03-05T07:56:35.454Z,4.10
2023-03-05T07:59:11.307Z,3.17
2023-03-05T08:01:40.171Z,3.95
2023-03-05T08:04:10.977Z,3.60
2023-03-05T08:06:41.054Z,3.15
2023-03-05T08:09:09.493Z,3.72
2023-03-05T08:11:39.822Z,3.22
2023-03-05T08:14:09.512Z,3.65
2023-03-05T08:16:40.056Z,3.33
2023-03-05T08:19:10.862Z,3.00
2023-03-05T08:21:40.898Z,3.05
2023-03-05T08:24:10.980Z,3.13
2023-03-05T08:26:43.801Z,3.63
2023-03-05T08:29:12.245Z,3.75
2023-03-05T08:31:45.272Z,3.88
2023-03-05T08:34:13.247Z,3.20
2023-03-05T08:36:43.036Z,3.05
2023-03-05T08:39:11.069Z,3.10
2023-03-05T08:41:39.830Z,2.22
2023-03-05T08:44:08.978Z,2.67
2023-03-05T08:46:40.614Z,2.42
2023-03-05T08:49:10.866Z,2.78
2023-03-05T08:51:39.316Z,2.88
2023-03-05T08:54:08.542Z,2.17
2023-03-05T08:56:37.742Z,2.05
2023-03-05T08:59:06.713Z,2.10
2023-03-05T09:01:35.037Z,2.45
2023-03-05T09:04:04.066Z,2.50
2023-03-05T09:06:34.494Z,2.45
2023-03-05T09:09:04.243Z,2.42
2023-03-05T09:11:36.039Z,1.73
2023-03-05T09:14:07.094Z,1.90
2023-03-05T09:16:36.300Z,1.58
2023-03-05T09:19:04.589Z,2.20
2023-03-05T09:21:32.630Z,1.88
2023-03-05T09:24:01.113Z,2.42
2023-03-05T09:26:29.494Z,2.00
2023-03-05T09:28:57.828Z,2.15
2023-03-05T09:31:26.261Z,2.00
2023-03-05T09:33:54.930Z,2.00
2023-03-05T09:36:27.027Z,2.10
2023-03-05T09:38:55.924Z,2.42
2023-03-05T09:42:10.298Z,2.72
2023-03-05T09:45:01.031Z,2.05
2023-03-05T09:47:53.949Z,2.97
2023-03-05T09:50:43.588Z,2.22
2023-03-05T09:53:22.381Z,1.80
2023-03-05T09:55:53.786Z,1.83
2023-03-05T09:58:37.045Z,2.35
2023-03-05T10:01:09.658Z,2.30
2023-03-05T10:03:56.930Z,2.85
2023-03-05T10:06:30.984Z,1.60
2023-03-05T10:09:11.449Z,2.15
2023-03-05T10:11:59.285Z,2.05
2023-03-05T10:14:34.925Z,2.45
2023-03-05T10:17:31.578Z,2.03
2023-03-05T10:20:21.437Z,2.10
2023-03-05T10:23:15.715Z,5.70
2023-03-05T10:25:55.005Z,2.55
2023-03-05T10:28:27.880Z,2.45
2023-03-05T10:31:24.903Z,2.35
2023-03-05T10:34:33.423Z,3.00
2023-03-05T10:37:22.103Z,2.33
2023-03-05T10:40:26.690Z,2.53
2023-03-05T10:43:15.798Z,2.03
2023-03-05T10:45:49.875Z,2.35
2023-03-05T10:48:34.099Z,2.85
2023-03-05T10:51:09.881Z,2.35
2023-03-05T10:53:52.125Z,2.80
2023-03-05T10:56:22.797Z,2.78
2023-03-05T10:58:53.652Z,3.40
2023-03-05T11:01:23.851Z,3.28
2023-03-05T11:04:06.496Z,3.17
2023-03-05T11:06:42.729Z,2.63
2023-03-05T11:09:24.633Z,3.20
2023-03-05T11:12:20.545Z,2.90
2023-03-05T11:15:06.636Z,2.42
2023-03-05T11:17:43.451Z,2.38
2023-03-05T11:20:29.417Z,2.00
2023-03-05T11:23:11.094Z,2.40
2023-03-05T11:26:01.244Z,2.13
2023-03-05T11:28:39.097Z,2.05
2023-03-05T11:31:18.554Z,5.00
2023-03-05T11:34:26.170Z,2.63
2023-03-05T11:36:53.233Z,3.50
2023-03-05T11:39:24.416Z,2.78
2023-03-05T11:42:00.690Z,3.15
2023-03-05T11:44:56.002Z,2.42
2023-03-05T11:47:32.312Z,2.35
2023-03-05T11:50:23.037Z,2.92
2023-03-05T11:53:09.703Z,2.40
2023-03-05T11:55:43.192Z,2.85
2023-03-05T11:58:13.861Z,3.67
2023-03-05T12:00:44.807Z,4.00
2023-03-05T12:03:15.404Z,2.65
2023-03-05T12:05:45.691Z,3.10
2023-03-05T12:10:47.046Z,3.42
2023-03-05T12:13:37.836Z,2.08
2023-03-05T12:16:14.902Z,2.83
2023-03-05T12:19:08.741Z,2.70
2023-03-05T12:21:41.749Z,2.05
2023-03-05T12:24:26.716Z,2.25
2023-03-05T12:27:03.765Z,2.60
2023-03-05T12:29:51.391Z,2.85
2023-03-05T12:32:31.542Z,3.08
2023-03-05T12:35:05.410Z,2.63
2023-03-05T12:37:32.350Z,2.63
2023-03-05T12:40:09.015Z,2.22
2023-03-05T12:45:19.593Z,2.60
2023-03-05T12:48:12.055Z,3.28
2023-03-05T12:50:39.139Z,2.15
2023-03-05T12:53:20.887Z,2.17
2023-03-05T12:56:01.717Z,3.60
2023-03-05T12:58:44.696Z,2.72
2023-03-05T13:01:11.698Z,4.22
2023-03-05T13:03:50.551Z,4.60
2023-03-05T13:06:35.538Z,4.40
2023-03-05T13:09:17.126Z,3.45
2023-03-05T13:11:51.769Z,5.60
2023-03-05T13:14:35.962Z,4.55
2023-03-05T13:17:23.700Z,5.82
2023-03-05T13:19:50.866Z,5.57
2023-03-05T13:22:18.070Z,6.20
2023-03-05T13:24:47.616Z,5.65
2023-03-05T13:27:28.988Z,5.78
2023-03-05T13:29:55.997Z,5.90
2023-03-05T13:32:27.824Z,5.68
2023-03-05T13:34:58.089Z,5.80
2023-03-05T13:37:29.963Z,6.68
2023-03-05T13:40:07.190Z,6.18
2023-03-05T13:42:36.774Z,7.05
2023-03-05T13:45:25.951Z,6.53
2023-03-05T13:47:58.950Z,4.97
2023-03-05T13:50:32.612Z,6.78
2023-03-05T13:53:24.440Z,6.03
2023-03-05T13:55:54.706Z,6.00
2023-03-05T13:58:40.598Z,6.78
2023-03-05T14:01:26.372Z,5.53
2023-03-05T14:06:22.536Z,5.82
2023-03-05T14:08:55.172Z,5.15
2023-03-05T14:11:23.201Z,6.53
2023-03-05T14:14:02.659Z,5.72
2023-03-05T14:16:32.814Z,6.40
2023-03-05T14:19:09.255Z,8.90
2023-03-05T14:21:50.631Z,9.73
2023-03-05T14:24:25.501Z,10.57
2023-03-05T14:26:56.578Z,10.38
2023-03-05T14:29:26.421Z,9.93
2023-03-05T14:31:54.688Z,9.57
2023-03-05T14:34:42.173Z,8.35
2023-03-05T14:37:23.738Z,6.95
2023-03-05T14:40:00.801Z,7.75
2023-03-05T14:42:39.388Z,6.28
2023-03-05T14:45:13.396Z,6.03
2023-03-05T14:47:40.597Z,7.22
2023-03-05T14:50:10.355Z,6.25
2023-03-05T14:52:37.906Z,5.50
2023-03-05T14:55:05.444Z,6.78
2023-03-05T14:57:33.096Z,5.95
2023-03-05T15:00:00.120Z,6.78
2023-03-05T15:02:27.219Z,9.50
2023-03-05T15:04:54.133Z,8.57
2023-03-05T15:07:27.214Z,6.80
2023-03-05T15:09:54.361Z,6.10
2023-03-05T15:12:24.821Z,7.68
2023-03-05T15:14:54.276Z,7.70
2023-03-05T15:17:33.561Z,7.00
2023-03-05T15:20:01.076Z,8.13
2023-03-05T15:22:28.060Z,7.47
2023-03-05T15:24:55.021Z,6.75
2023-03-05T15:27:21.910Z,9.73
2023-03-05T15:29:52.899Z,7.53
2023-03-05T15:32:20.838Z,6.60
2023-03-05T15:34:48.286Z,5.78
2023-03-05T15:37:15.697Z,5.85
2023-03-05T15:39:42.735Z,10.52
2023-03-05T15:42:09.613Z,10.70
2023-03-05T15:44:36.700Z,7.93
2023-03-05T15:47:03.596Z,7.25
2023-03-05T15:49:30.654Z,6.88
2023-03-05T15:51:57.787Z,7.53
2023-03-05T15:54:27.783Z,7.53
2023-03-05T15:56:55.454Z,6.20
2023-03-05T15:59:22.657Z,6.53
2023-03-05T16:01:51.750Z,6.45
2023-03-05T16:04:18.961Z,7.00
2023-03-05T16:06:49.208Z,5.88
2023-03-05T16:09:18.487Z,7.65
2023-03-05T16:11:48.123Z,6.30
2023-03-05T16:14:19.453Z,6.32
2023-03-05T16:16:47.692Z,8.77
2023-03-05T16:19:18.054Z,6.60
2023-03-05T16:21:46.772Z,6.28
2023-03-05T16:24:14.107Z,7.40
2023-03-05T16:26:41.717Z,5.93
2023-03-05T16:29:09.220Z,5.60
2023-03-05T16:41:29.718Z,4.47
2023-03-05T16:43:57.598Z,5.68
2023-03-05T16:46:28.034Z,5.50
2023-03-05T16:51:22.209Z,3.92
2023-03-05T16:53:50.773Z,6.03
2023-03-05T16:56:17.827Z,4.80
2023-03-05T16:58:45.174Z,4.95
2023-03-05T17:01:19.816Z,5.53
2023-03-05T17:03:47.961Z,5.32
2023-03-05T17:06:27.787Z,5.63
2023-03-05T17:08:56.523Z,5.55
2023-03-05T17:11:25.740Z,4.90
2023-03-05T17:13:55.280Z,5.68
2023-03-05T17:16:23.671Z,4.82
2023-03-05T17:18:50.673Z,4.30
2023-03-05T17:21:17.838Z,4.20
2023-03-05T17:23:45.536Z,4.60
2023-03-05T17:26:15.769Z,4.38
2023-03-05T17:28:43.229Z,4.45
2023-03-05T17:31:13.642Z,4.97
2023-03-05T17:33:41.784Z,7.28
2023-03-05T17:36:18.328Z,5.55
2023-03-05T17:38:47.633Z,5.95
2023-03-05T17:41:15.724Z,4.82
2023-03-05T17:43:43.331Z,4.15
2023-03-05T17:46:12.558Z,4.80
2023-03-05T17:48:43.233Z,5.13
2023-03-05T17:51:13.584Z,4.25
2023-03-05T17:53:41.137Z,4.80
2023-03-05T17:56:09.827Z,4.60
2023-03-05T17:58:38.096Z,5.15
2023-03-05T18:01:06.899Z,4.82
2023-03-05T18:03:34.681Z,5.07
2023-03-05T18:06:01.929Z,5.50
2023-03-05T18:08:32.300Z,5.53
2023-03-05T18:10:59.481Z,4.35
2023-03-05T18:13:26.766Z,4.22
2023-03-05T18:15:53.991Z,4.60
2023-03-05T18:18:21.319Z,5.55
2023-03-05T18:20:50.320Z,4.57
2023-03-05T18:23:17.619Z,5.10
2023-03-05T18:25:49.016Z,5.20
2023-03-05T18:28:16.813Z,4.30
2023-03-05T18:30:45.836Z,4.10
2023-03-05T18:33:22.540Z,4.55
2023-03-05T18:35:52.410Z,3.97
2023-03-05T18:38:24.802Z,5.28
2023-03-05T18:40:53.451Z,4.63
2023-03-05T18:43:21.895Z,5.70
2023-03-05T18:45:54.909Z,6.00
2023-03-05T18:48:23.007Z,5.47
2023-03-05T18:50:53.866Z,5.68
2023-03-05T18:53:23.196Z,4.82
2023-03-05T18:55:52.702Z,5.03
2023-03-05T18:58:20.042Z,5.43
2023-03-05T19:00:48.050Z,4.60
2023-03-05T19:03:16.511Z,5.93
2023-03-05T19:05:45.962Z,6.55
2023-03-05T19:08:14.054Z,5.25
2023-03-05T19:10:41.042Z,6.28
2023-03-05T19:13:39.948Z,6.90
2023-03-05T19:16:08.210Z,10.40
2023-03-05T19:18:39.678Z,8.15
2023-03-05T19:21:08.264Z,7.45
2023-03-05T19:23:35.807Z,7.35
2023-03-05T19:26:03.724Z,7.43
2023-03-05T19:28:30.792Z,7.15
2023-03-05T19:30:57.859Z,6.45
2023-03-05T19:33:25.143Z,7.07
2023-03-05T19:35:52.313Z,8.73
2023-03-05T19:38:19.308Z,6.03
2023-03-05T19:40:47.745Z,8.23
2023-03-05T19:43:14.879Z,5.47
2023-03-05T19:45:41.920Z,7.80
2023-03-05T19:48:08.962Z,7.53
2023-03-05T19:50:36.006Z,8.65
2023-03-05T19:53:03.357Z,8.70
2023-03-05T19:55:30.575Z,6.90
2023-03-05T19:57:57.892Z,5.45
2023-03-05T20:00:28.611Z,7.03
2023-03-05T20:02:55.696Z,6.15
2023-03-05T20:05:25.613Z,6.38
2023-03-05T20:07:56.022Z,6.13
2023-03-05T20:10:25.415Z,8.23
2023-03-05T20:12:52.542Z,5.70
2023-03-05T20:15:22.681Z,5.57
2023-03-05T20:17:53.290Z,6.13
2023-03-05T20:22:49.590Z,5.72
2023-03-05T20:25:18.028Z,6.78
2023-03-05T20:27:45.044Z,6.95
2023-03-05T20:30:15.351Z,5.78
2023-03-05T20:35:13.917Z,5.53
2023-03-05T20:37:49.505Z,10.45
2023-03-05T20:45:10.807Z,6.20
2023-03-05T20:47:40.977Z,5.90
2023-03-05T20:57:32.236Z,5.28
2023-03-05T21:00:00.402Z,9.80
2023-03-05T21:02:27.742Z,10.60
2023-03-05T21:04:54.945Z,10.82
2023-03-05T21:07:25.855Z,10.50
2023-03-05T21:09:53.469Z,8.77
2023-03-05T21:12:20.646Z,5.88
2023-03-05T21:14:48.192Z,6.55
2023-03-05T21:17:15.301Z,8.05
2023-03-05T21:19:42.432Z,8.27
2023-03-05T21:22:09.749Z,6.75
2023-03-05T21:24:53.574Z,6.68
2023-03-05T21:52:09.414Z,6.57
2023-03-05T21:54:38.117Z,11.60
2023-03-05T21:57:06.366Z,11.82
2023-03-05T21:59:33.597Z,12.37
2023-03-05T22:02:00.909Z,12.18
2023-03-05T22:04:27.834Z,11.20
2023-03-05T22:06:54.768Z,12.13
2023-03-05T22:09:21.956Z,9.13
2023-03-05T22:11:48.849Z,8.80
2023-03-05T22:14:16.994Z,10.23
2023-03-05T22:16:45.248Z,6.78
2023-03-05T22:19:12.263Z,9.38
2023-03-05T22:21:39.349Z,9.90
2023-03-05T22:24:06.618Z,7.03
2023-03-05T22:26:36.712Z,7.57
2023-03-05T22:29:05.443Z,7.70
2023-03-05T22:31:32.379Z,6.47
2023-03-05T22:33:59.396Z,6.55
2023-03-05T22:36:26.579Z,6.63
2023-03-05T22:38:53.731Z,4.93
2023-03-05T22:41:21.630Z,8.63
2023-03-05T22:43:49.942Z,6.13
2023-03-05T22:46:22.750Z,7.45
2023-03-05T22:48:51.614Z,6.80
2023-03-05T22:51:18.933Z,4.80
2023-03-05T22:53:46.525Z,5.57
2023-03-05T22:56:19.219Z,6.65
2023-03-05T22:58:47.365Z,5.40
2023-03-05T23:01:23.814Z,5.85
2023-03-05T23:03:58.772Z,7.18
2023-03-05T23:06:26.548Z,3.55
2023-03-05T23:08:55.109Z,5.43
2023-03-05T23:11:22.245Z,4.22
2023-03-05T23:13:49.346Z,4.80
2023-03-05T23:16:16.495Z,5.10
2023-03-05T23:18:45.692Z,4.82
2023-03-05T23:21:12.796Z,4.38
2023-03-05T23:23:39.663Z,7.18
2023-03-05T23:26:06.769Z,4.90
2023-03-05T23:28:33.805Z,4.70
2023-03-05T23:31:00.938Z,5.60
2023-03-05T23:33:27.989Z,5.95
2023-03-05T23:35:59.820Z,6.10
2023-03-05T23:38:29.507Z,6.13
2023-03-05T23:41:01.143Z,5.32
2023-03-05T23:43:29.723Z,5.70
2023-03-05T23:45:56.969Z,5.60
2023-03-05T23:48:25.484Z,5.10
2023-03-05T23:50:52.921Z,6.82
2023-03-05T23:53:24.502Z,5.97
2023-03-05T23:55:52.392Z,5.28
2023-03-05T23:58:22.804Z,5.55
